FWI307 TFFG-TFFR
Flight info
| Callsign | FWI307 |
|---|---|
| Flight time | 0h 37m |
| Altitude | 17000 |
| Route | ZPATA A517 BIMBO BIMBO2A |
| Aircraft | AT76/M-SDFGIRY/S |
Departure
| Time | 2026-04-29 18:44 |
|---|---|
| Airport | Grand Case-l'Espérance Airport (TFFG) |
Arrival
| Time | 2026-04-29 19:22 |
|---|---|
| Airport | Maryse Condé International Airport (TFFR) |
| Time | Latitude | Longitude | Altitude | Speed | Heading |
|---|---|---|---|---|---|
| 2026-04-29 18:12 | 18.10142 | -63.04795 | 15 ft | 0 kts | 18° |
| 2026-04-29 18:40 | 18.10144 | -63.04797 | 15 ft | 0 kts | 343° |
| 2026-04-29 18:41 | 18.10118 | -63.04865 | 14 ft | 10 kts | 242° |
| 2026-04-29 18:41 | 18.10060 | -63.04923 | 10 ft | 11 kts | 277° |
| 2026-04-29 18:42 | 18.10079 | -63.04979 | 10 ft | 13 kts | 285° |
| 2026-04-29 18:42 | 18.10105 | -63.05078 | 10 ft | 15 kts | 287° |
| 2026-04-29 18:42 | 18.10129 | -63.05188 | 10 ft | 16 kts | 282° |
| 2026-04-29 18:42 | 18.10151 | -63.05238 | 10 ft | 3 kts | 350° |
| 2026-04-29 18:43 | 18.10152 | -63.05234 | 10 ft | 0 kts | 59° |
| 2026-04-29 18:43 | 18.10144 | -63.05200 | 10 ft | 1 kts | 104° |
| 2026-04-29 18:43 | 18.10150 | -63.05229 | 10 ft | 2 kts | 105° |
| 2026-04-29 18:44 | 18.10051 | -63.04893 | 10 ft | 78 kts | 107° |
| 2026-04-29 18:44 | 18.09839 | -63.04177 | 131 ft | 114 kts | 106° |
| 2026-04-29 18:44 | 18.09664 | -63.03376 | 709 ft | 121 kts | 100° |
| 2026-04-29 18:44 | 18.09579 | -63.02429 | 1209 ft | 137 kts | 96° |
| 2026-04-29 18:45 | 18.09520 | -63.01335 | 1518 ft | 161 kts | 94° |
| 2026-04-29 18:45 | 18.09181 | -63.00202 | 1905 ft | 169 kts | 130° |
| 2026-04-29 18:45 | 18.08177 | -62.99598 | 2311 ft | 172 kts | 171° |
| 2026-04-29 18:45 | 18.06999 | -62.99627 | 2714 ft | 171 kts | 181° |
| 2026-04-29 18:46 | 18.05818 | -62.99643 | 3131 ft | 169 kts | 178° |
| 2026-04-29 18:46 | 18.04633 | -62.99589 | 3469 ft | 172 kts | 174° |
| 2026-04-29 18:46 | 18.03428 | -62.99447 | 3787 ft | 176 kts | 170° |
| 2026-04-29 18:46 | 18.02215 | -62.99209 | 4103 ft | 178 kts | 166° |
| 2026-04-29 18:47 | 18.01013 | -62.98894 | 4431 ft | 180 kts | 164° |
| 2026-04-29 18:47 | 17.99824 | -62.98543 | 4743 ft | 182 kts | 163° |
| 2026-04-29 18:47 | 17.98600 | -62.98181 | 5056 ft | 183 kts | 163° |
| 2026-04-29 18:47 | 17.97392 | -62.97825 | 5354 ft | 184 kts | 163° |
| 2026-04-29 18:48 | 17.96171 | -62.97467 | 5653 ft | 184 kts | 163° |
| 2026-04-29 18:48 | 17.94935 | -62.97101 | 5971 ft | 184 kts | 163° |
| 2026-04-29 18:48 | 17.93697 | -62.96730 | 6297 ft | 185 kts | 163° |
| 2026-04-29 18:48 | 17.92457 | -62.96359 | 6599 ft | 185 kts | 163° |
| 2026-04-29 18:49 | 17.91216 | -62.95986 | 6906 ft | 185 kts | 163° |
| 2026-04-29 18:49 | 17.89973 | -62.95618 | 7217 ft | 185 kts | 163° |
| 2026-04-29 18:49 | 17.88742 | -62.95258 | 7521 ft | 186 kts | 163° |
| 2026-04-29 18:49 | 17.87493 | -62.94894 | 7805 ft | 188 kts | 164° |
| 2026-04-29 18:50 | 17.86217 | -62.94524 | 8067 ft | 190 kts | 164° |
| 2026-04-29 18:50 | 17.84933 | -62.94152 | 8335 ft | 192 kts | 164° |
| 2026-04-29 18:50 | 17.83640 | -62.93776 | 8606 ft | 194 kts | 164° |
| 2026-04-29 18:50 | 17.82328 | -62.93398 | 8852 ft | 197 kts | 164° |
| 2026-04-29 18:51 | 17.81009 | -62.93016 | 9100 ft | 199 kts | 164° |
| 2026-04-29 18:51 | 17.79662 | -62.92626 | 9355 ft | 202 kts | 165° |
| 2026-04-29 18:51 | 17.78303 | -62.92233 | 9606 ft | 203 kts | 165° |
| 2026-04-29 18:51 | 17.76929 | -62.91835 | 9859 ft | 205 kts | 165° |
| 2026-04-29 18:52 | 17.75551 | -62.91437 | 10088 ft | 206 kts | 165° |
| 2026-04-29 18:52 | 17.74161 | -62.91035 | 10323 ft | 207 kts | 165° |
| 2026-04-29 18:52 | 17.72784 | -62.90636 | 10553 ft | 208 kts | 166° |
| 2026-04-29 18:52 | 17.71381 | -62.90230 | 10784 ft | 209 kts | 165° |
| 2026-04-29 18:53 | 17.69953 | -62.89821 | 10886 ft | 217 kts | 166° |
| 2026-04-29 18:53 | 17.68465 | -62.89399 | 10950 ft | 225 kts | 166° |
| 2026-04-29 18:53 | 17.66918 | -62.88968 | 10980 ft | 233 kts | 166° |
| 2026-04-29 18:53 | 17.65328 | -62.88522 | 10991 ft | 239 kts | 166° |
| 2026-04-29 18:54 | 17.63720 | -62.88071 | 10994 ft | 245 kts | 166° |
| 2026-04-29 18:54 | 17.62056 | -62.87596 | 11000 ft | 249 kts | 166° |
| 2026-04-29 18:54 | 17.60356 | -62.87103 | 11004 ft | 257 kts | 165° |
| 2026-04-29 18:54 | 17.58600 | -62.86596 | 11002 ft | 264 kts | 166° |
| 2026-04-29 18:55 | 17.56818 | -62.86083 | 11003 ft | 266 kts | 165° |
| 2026-04-29 18:55 | 17.55022 | -62.85564 | 11004 ft | 268 kts | 166° |
| 2026-04-29 18:55 | 17.53223 | -62.85046 | 11003 ft | 267 kts | 165° |
| 2026-04-29 18:55 | 17.51454 | -62.84533 | 11002 ft | 266 kts | 165° |
| 2026-04-29 18:56 | 17.49665 | -62.84017 | 11000 ft | 266 kts | 165° |
| 2026-04-29 18:56 | 17.47875 | -62.83503 | 10993 ft | 265 kts | 165° |
| 2026-04-29 18:56 | 17.46153 | -62.82905 | 10993 ft | 264 kts | 156° |
| 2026-04-29 18:56 | 17.44514 | -62.82039 | 10997 ft | 263 kts | 152° |
| 2026-04-29 18:57 | 17.42900 | -62.81135 | 10998 ft | 263 kts | 152° |
| 2026-04-29 18:57 | 17.41268 | -62.80253 | 11002 ft | 263 kts | 154° |
| 2026-04-29 18:57 | 17.39616 | -62.79415 | 11015 ft | 264 kts | 155° |
| 2026-04-29 18:57 | 17.37975 | -62.78596 | 10998 ft | 264 kts | 155° |
| 2026-04-29 18:58 | 17.36313 | -62.77764 | 11001 ft | 264 kts | 155° |
| 2026-04-29 18:58 | 17.34657 | -62.76935 | 11003 ft | 264 kts | 155° |
| 2026-04-29 18:58 | 17.32997 | -62.76104 | 11014 ft | 264 kts | 155° |
| 2026-04-29 18:58 | 17.31331 | -62.75271 | 10997 ft | 265 kts | 154° |
| 2026-04-29 18:59 | 17.29662 | -62.74419 | 10999 ft | 267 kts | 150° |
| 2026-04-29 18:59 | 17.28272 | -62.73164 | 10998 ft | 268 kts | 132° |
| 2026-04-29 18:59 | 17.27070 | -62.71658 | 10991 ft | 269 kts | 129° |
| 2026-04-29 18:59 | 17.25885 | -62.70124 | 10998 ft | 270 kts | 129° |
| 2026-04-29 19:00 | 17.24679 | -62.68628 | 11003 ft | 272 kts | 131° |
| 2026-04-29 19:00 | 17.23422 | -62.67144 | 11003 ft | 273 kts | 131° |
| 2026-04-29 19:00 | 17.22153 | -62.65667 | 11009 ft | 273 kts | 131° |
| 2026-04-29 19:00 | 17.20881 | -62.64173 | 10993 ft | 274 kts | 131° |
| 2026-04-29 19:01 | 17.19612 | -62.62681 | 10999 ft | 274 kts | 131° |
| 2026-04-29 19:01 | 17.18359 | -62.61207 | 11007 ft | 274 kts | 131° |
| 2026-04-29 19:01 | 17.17086 | -62.59709 | 11005 ft | 274 kts | 131° |
| 2026-04-29 19:01 | 17.15818 | -62.58217 | 11006 ft | 274 kts | 131° |
| 2026-04-29 19:02 | 17.14562 | -62.56742 | 11003 ft | 274 kts | 131° |
| 2026-04-29 19:02 | 17.13707 | -62.55735 | 10995 ft | 274 kts | 131° |
| 2026-04-29 19:02 | 17.12024 | -62.53757 | 11001 ft | 274 kts | 131° |
| 2026-04-29 19:02 | 17.10753 | -62.52265 | 10997 ft | 274 kts | 131° |
| 2026-04-29 19:03 | 17.09486 | -62.50774 | 10993 ft | 273 kts | 131° |
| 2026-04-29 19:03 | 17.08223 | -62.49289 | 10997 ft | 273 kts | 131° |
| 2026-04-29 19:03 | 17.06956 | -62.47803 | 10995 ft | 273 kts | 131° |
| 2026-04-29 19:03 | 17.05704 | -62.46332 | 10991 ft | 273 kts | 131° |
| 2026-04-29 19:04 | 17.04440 | -62.44847 | 10991 ft | 273 kts | 131° |
| 2026-04-29 19:04 | 17.03180 | -62.43364 | 10981 ft | 273 kts | 131° |
| 2026-04-29 19:04 | 17.01913 | -62.41879 | 10987 ft | 273 kts | 131° |
| 2026-04-29 19:04 | 17.00651 | -62.40401 | 10983 ft | 273 kts | 131° |
| 2026-04-29 19:05 | 16.99385 | -62.38916 | 10986 ft | 273 kts | 131° |
| 2026-04-29 19:05 | 16.98122 | -62.37436 | 10991 ft | 273 kts | 131° |
| 2026-04-29 19:05 | 16.96859 | -62.35951 | 11000 ft | 273 kts | 131° |
| 2026-04-29 19:05 | 16.95609 | -62.34485 | 11001 ft | 272 kts | 131° |
| 2026-04-29 19:06 | 16.94342 | -62.33003 | 11006 ft | 273 kts | 131° |
| 2026-04-29 19:06 | 16.93082 | -62.31523 | 11006 ft | 272 kts | 131° |
| 2026-04-29 19:06 | 16.90568 | -62.28582 | 11021 ft | 272 kts | 131° |
| 2026-04-29 19:07 | 16.89309 | -62.27105 | 11016 ft | 272 kts | 131° |
| 2026-04-29 19:07 | 16.88454 | -62.26105 | 11019 ft | 272 kts | 131° |
| 2026-04-29 19:07 | 16.86783 | -62.24149 | 11029 ft | 272 kts | 131° |
| 2026-04-29 19:07 | 16.85518 | -62.22667 | 11034 ft | 272 kts | 131° |
| 2026-04-29 19:08 | 16.84253 | -62.21186 | 11029 ft | 272 kts | 131° |
| 2026-04-29 19:08 | 16.83007 | -62.19732 | 11029 ft | 272 kts | 131° |
| 2026-04-29 19:08 | 16.81743 | -62.18256 | 11032 ft | 272 kts | 131° |
| 2026-04-29 19:08 | 16.80479 | -62.16775 | 11029 ft | 272 kts | 131° |
| 2026-04-29 19:09 | 16.79230 | -62.15316 | 11028 ft | 272 kts | 131° |
| 2026-04-29 19:09 | 16.77969 | -62.13841 | 11030 ft | 272 kts | 131° |
| 2026-04-29 19:09 | 16.76699 | -62.12361 | 11034 ft | 272 kts | 131° |
| 2026-04-29 19:09 | 16.75436 | -62.10885 | 11034 ft | 272 kts | 131° |
| 2026-04-29 19:10 | 16.74178 | -62.09413 | 11027 ft | 272 kts | 131° |
| 2026-04-29 19:10 | 16.72933 | -62.07960 | 11019 ft | 272 kts | 131° |
| 2026-04-29 19:10 | 16.71666 | -62.06482 | 11020 ft | 272 kts | 131° |
| 2026-04-29 19:10 | 16.70400 | -62.05004 | 11009 ft | 272 kts | 131° |
| 2026-04-29 19:11 | 16.69139 | -62.03530 | 11011 ft | 272 kts | 131° |
| 2026-04-29 19:11 | 16.67896 | -62.02081 | 11005 ft | 272 kts | 131° |
| 2026-04-29 19:11 | 16.66632 | -62.00606 | 10990 ft | 272 kts | 131° |
| 2026-04-29 19:11 | 16.65355 | -61.99122 | 10796 ft | 275 kts | 131° |
| 2026-04-29 19:12 | 16.64075 | -61.97631 | 10608 ft | 276 kts | 131° |
| 2026-04-29 19:12 | 16.62811 | -61.96154 | 10411 ft | 277 kts | 130° |
| 2026-04-29 19:12 | 16.61521 | -61.94648 | 10171 ft | 279 kts | 131° |
| 2026-04-29 19:12 | 16.60660 | -61.93648 | 10015 ft | 280 kts | 130° |
| 2026-04-29 19:13 | 16.58917 | -61.91626 | 9691 ft | 281 kts | 130° |
| 2026-04-29 19:13 | 16.57607 | -61.90110 | 9432 ft | 281 kts | 130° |
| 2026-04-29 19:13 | 16.56293 | -61.88599 | 9186 ft | 281 kts | 131° |
| 2026-04-29 19:13 | 16.54988 | -61.87090 | 8932 ft | 279 kts | 131° |
| 2026-04-29 19:14 | 16.53713 | -61.85607 | 8684 ft | 277 kts | 131° |
| 2026-04-29 19:14 | 16.52432 | -61.84114 | 8328 ft | 273 kts | 131° |
| 2026-04-29 19:14 | 16.51171 | -61.82647 | 7934 ft | 272 kts | 131° |
| 2026-04-29 19:14 | 16.51111 | -61.82577 | 7917 ft | 272 kts | 131° |
| 2026-04-29 19:15 | 16.50294 | -61.81621 | 7675 ft | 271 kts | 131° |
| 2026-04-29 19:15 | 16.49038 | -61.80152 | 7290 ft | 270 kts | 131° |
| 2026-04-29 19:15 | 16.47784 | -61.78691 | 6918 ft | 269 kts | 131° |
| 2026-04-29 19:15 | 16.46538 | -61.77248 | 6547 ft | 266 kts | 131° |
| 2026-04-29 19:16 | 16.45318 | -61.75837 | 6172 ft | 264 kts | 131° |
| 2026-04-29 19:16 | 16.44092 | -61.74413 | 5768 ft | 262 kts | 131° |
| 2026-04-29 19:16 | 16.42886 | -61.72993 | 5377 ft | 260 kts | 131° |
| 2026-04-29 19:16 | 16.41690 | -61.71580 | 4990 ft | 259 kts | 131° |
| 2026-04-29 19:17 | 16.40504 | -61.70177 | 4588 ft | 258 kts | 131° |
| 2026-04-29 19:17 | 16.39330 | -61.68783 | 4244 ft | 252 kts | 131° |
| 2026-04-29 19:17 | 16.38192 | -61.67434 | 3905 ft | 243 kts | 131° |
| 2026-04-29 19:17 | 16.37102 | -61.66142 | 3570 ft | 237 kts | 131° |
| 2026-04-29 19:18 | 16.36016 | -61.64862 | 3222 ft | 232 kts | 130° |
| 2026-04-29 19:18 | 16.35325 | -61.64052 | 2959 ft | 218 kts | 131° |
| 2026-04-29 19:18 | 16.34044 | -61.62568 | 2430 ft | 194 kts | 132° |
| 2026-04-29 19:18 | 16.33071 | -61.61718 | 2181 ft | 176 kts | 143° |
| 2026-04-29 19:19 | 16.32055 | -61.61073 | 1882 ft | 169 kts | 146° |
| 2026-04-29 19:19 | 16.31088 | -61.60497 | 1759 ft | 152 kts | 150° |
| 2026-04-29 19:19 | 16.30215 | -61.60035 | 1644 ft | 123 kts | 150° |
| 2026-04-29 19:19 | 16.29506 | -61.59664 | 1486 ft | 109 kts | 150° |
| 2026-04-29 19:20 | 16.28828 | -61.59314 | 1340 ft | 109 kts | 150° |
| 2026-04-29 19:20 | 16.28153 | -61.58954 | 1212 ft | 110 kts | 146° |
| 2026-04-29 19:20 | 16.27644 | -61.58359 | 994 ft | 111 kts | 116° |
| 2026-04-29 19:20 | 16.27369 | -61.57594 | 783 ft | 115 kts | 105° |
| 2026-04-29 19:21 | 16.27181 | -61.56776 | 582 ft | 115 kts | 102° |
| 2026-04-29 19:21 | 16.27038 | -61.55973 | 369 ft | 112 kts | 100° |
| 2026-04-29 19:21 | 16.26898 | -61.55197 | 211 ft | 106 kts | 98° |
| 2026-04-29 19:21 | 16.26766 | -61.54447 | 65 ft | 105 kts | 101° |
| 2026-04-29 19:22 | 16.26630 | -61.53721 | 19 ft | 97 kts | 102° |
| 2026-04-29 19:22 | 16.26564 | -61.53364 | 15 ft | 30 kts | 102° |
| 2026-04-29 19:22 | 16.26528 | -61.53169 | 16 ft | 20 kts | 99° |
| 2026-04-29 19:22 | 16.26508 | -61.53059 | 16 ft | 12 kts | 98° |
| 2026-04-29 19:23 | 16.26527 | -61.52998 | 18 ft | 8 kts | 43° |
| 2026-04-29 19:23 | 16.26589 | -61.52980 | 17 ft | 11 kts | 11° |
| 2026-04-29 19:23 | 16.26664 | -61.52964 | 20 ft | 11 kts | 9° |
| 2026-04-29 19:23 | 16.26747 | -61.52947 | 18 ft | 13 kts | 12° |
| 2026-04-29 19:24 | 16.26837 | -61.52928 | 20 ft | 13 kts | 9° |
| 2026-04-29 19:24 | 16.26901 | -61.52948 | 18 ft | 11 kts | 300° |
| 2026-04-29 19:24 | 16.26944 | -61.52982 | 18 ft | 6 kts | 24° |
| 2026-04-29 19:24 | 16.26959 | -61.52968 | 18 ft | 2 kts | 58° |
| 2026-04-29 19:25 | 16.26959 | -61.52964 | 18 ft | 0 kts | 92° |
| 2026-04-29 19:25 | 16.26956 | -61.52961 | 18 ft | 0 kts | 129° |
| 2026-04-29 19:25 | 16.26952 | -61.52960 | 18 ft | 0 kts | 151° |
| 2026-04-29 19:25 | 16.26948 | -61.52957 | 18 ft | 0 kts | 151° |